createdAt,value
2019-03-16T00:00:47.146Z,8.50
2019-03-16T00:02:54.341Z,5.87
2019-03-16T00:05:01.721Z,8.33
2019-03-16T00:07:09.001Z,7.13
2019-03-16T00:09:16.271Z,9.50
2019-03-16T00:11:23.617Z,6.23
2019-03-16T00:13:30.951Z,8.83
2019-03-16T00:15:38.220Z,6.47
2019-03-16T00:17:45.654Z,4.33
2019-03-16T00:19:52.871Z,4.40
2019-03-16T00:22:00.309Z,4.77
2019-03-16T00:24:07.701Z,5.87
2019-03-16T00:26:15.062Z,4.80
2019-03-16T00:28:22.446Z,6.13
2019-03-16T00:30:29.798Z,5.87
2019-03-16T00:32:37.135Z,4.30
2019-03-16T00:34:44.480Z,4.23
2019-03-16T00:36:51.889Z,3.97
2019-03-16T00:38:59.260Z,5.33
2019-03-16T00:41:06.633Z,6.13
2019-03-16T00:43:14.103Z,7.13
2019-03-16T00:45:21.540Z,4.23
2019-03-16T00:47:28.894Z,4.43
2019-03-16T00:49:36.198Z,6.37
2019-03-16T00:51:43.543Z,6.50
2019-03-16T00:53:50.861Z,2.53
2019-03-16T00:55:58.175Z,5.77
2019-03-16T00:58:05.748Z,6.17
2019-03-16T01:00:13.870Z,3.80
2019-03-16T01:02:26.953Z,5.57
2019-03-16T01:04:30.426Z,5.63
2019-03-16T01:06:37.814Z,6.27
2019-03-16T01:08:45.148Z,3.43
2019-03-16T01:10:52.498Z,4.90
2019-03-16T01:12:59.915Z,5.00
2019-03-16T01:15:09.108Z,8.40
2019-03-16T01:17:16.419Z,4.67
2019-03-16T01:19:23.845Z,29.43
2019-03-16T01:21:31.232Z,11.23
2019-03-16T01:23:38.552Z,4.93
2019-03-16T01:25:45.920Z,7.93
2019-03-16T01:27:53.242Z,10.27
2019-03-16T01:30:00.609Z,42.10
2019-03-16T01:32:08.019Z,34.70
2019-03-16T01:34:15.370Z,31.60
2019-03-16T01:36:22.742Z,27.83
2019-03-16T01:38:30.035Z,13.00
2019-03-16T01:40:37.311Z,8.57
2019-03-16T01:42:44.757Z,15.13
2019-03-16T01:44:52.136Z,14.13
2019-03-16T01:46:59.874Z,8.87
2019-03-16T01:49:07.152Z,9.57
2019-03-16T01:51:14.457Z,8.87
2019-03-16T01:53:21.767Z,6.63
2019-03-16T01:55:29.129Z,9.87
2019-03-16T01:57:36.431Z,9.73
2019-03-16T01:59:43.752Z,4.43
2019-03-16T02:01:51.023Z,6.13
2019-03-16T02:03:58.540Z,11.43
2019-03-16T02:06:05.844Z,19.87
2019-03-16T02:08:13.350Z,17.63
2019-03-16T02:10:20.544Z,11.53
2019-03-16T02:12:27.859Z,12.43
2019-03-16T02:14:35.061Z,20.10
2019-03-16T02:16:42.394Z,11.10
2019-03-16T02:18:50.865Z,13.13
2019-03-16T02:20:58.132Z,9.77
2019-03-16T02:23:05.469Z,9.93
2019-03-16T02:25:13.135Z,10.60
2019-03-16T02:27:20.411Z,12.93
2019-03-16T02:29:27.611Z,14.03
2019-03-16T02:31:34.943Z,8.27
2019-03-16T02:33:42.306Z,11.70
2019-03-16T02:35:49.644Z,11.70
2019-03-16T02:37:56.925Z,8.70
2019-03-16T02:40:04.369Z,8.77
2019-03-16T02:42:11.699Z,6.97
2019-03-16T02:44:18.956Z,13.13
2019-03-16T02:46:26.351Z,9.80
2019-03-16T02:48:33.676Z,9.03
2019-03-16T02:50:41.003Z,6.93
2019-03-16T02:52:49.975Z,9.57
2019-03-16T02:54:57.168Z,6.33
2019-03-16T02:57:04.513Z,7.70
2019-03-16T02:59:11.873Z,11.40
2019-03-16T03:01:19.172Z,6.90
2019-03-16T03:03:29.594Z,8.23
2019-03-16T03:05:35.384Z,10.60
2019-03-16T03:07:42.585Z,8.33
2019-03-16T03:09:50.316Z,9.20
2019-03-16T03:11:57.832Z,15.30
2019-03-16T03:14:05.196Z,9.80
2019-03-16T03:16:12.714Z,5.87
2019-03-16T03:18:19.994Z,9.30
2019-03-16T03:20:27.295Z,9.67
2019-03-16T03:22:34.609Z,7.97
2019-03-16T03:24:44.256Z,9.37
2019-03-16T03:26:50.970Z,13.47
2019-03-16T03:28:58.199Z,16.27
2019-03-16T03:31:05.527Z,8.93
2019-03-16T03:33:12.829Z,9.33
2019-03-16T03:35:20.145Z,8.80
2019-03-16T03:37:27.500Z,7.40
2019-03-16T03:39:34.737Z,8.47
2019-03-16T03:41:42.084Z,9.23
2019-03-16T03:43:49.486Z,9.40
2019-03-16T03:45:56.818Z,6.77
2019-03-16T03:48:04.110Z,76.17
2019-03-16T03:50:11.675Z,12.07
2019-03-16T03:52:21.782Z,11.20
2019-03-16T03:54:29.181Z,10.77
2019-03-16T03:56:36.494Z,9.57
2019-03-16T03:58:43.844Z,5.50
2019-03-16T04:00:51.247Z,16.23
2019-03-16T04:02:58.843Z,14.53
2019-03-16T04:05:06.418Z,7.80
2019-03-16T04:07:13.792Z,8.43
2019-03-16T04:09:21.282Z,6.93
2019-03-16T04:11:28.654Z,5.50
2019-03-16T04:13:35.956Z,7.67
2019-03-16T04:15:43.212Z,5.37
2019-03-16T04:17:50.467Z,7.13
2019-03-16T04:19:57.770Z,8.53
2019-03-16T04:22:05.100Z,7.80
2019-03-16T04:24:12.401Z,8.37
2019-03-16T04:26:19.787Z,6.43
2019-03-16T04:28:27.132Z,4.57
2019-03-16T04:30:34.426Z,10.87
2019-03-16T04:32:41.697Z,7.33
2019-03-16T04:34:48.921Z,5.13
2019-03-16T04:36:56.246Z,7.87
2019-03-16T04:39:03.577Z,6.70
2019-03-16T04:41:10.866Z,6.47
2019-03-16T04:43:18.058Z,5.67
2019-03-16T04:45:25.424Z,6.80
2019-03-16T04:47:32.628Z,6.10
2019-03-16T04:49:39.986Z,8.13
2019-03-16T04:51:47.336Z,3.90
2019-03-16T04:53:54.617Z,6.33
2019-03-16T04:56:01.938Z,5.17
2019-03-16T04:58:09.273Z,5.13
2019-03-16T05:00:16.648Z,6.87
2019-03-16T05:02:23.855Z,4.90
2019-03-16T05:04:42.005Z,7.57
2019-03-16T05:06:40.172Z,7.87
2019-03-16T05:08:47.425Z,6.70
2019-03-16T05:10:54.737Z,4.50
2019-03-16T05:13:02.192Z,6.33
2019-03-16T05:15:09.783Z,6.37
2019-03-16T05:17:17.087Z,28.87
2019-03-16T05:19:24.465Z,23.70
2019-03-16T05:21:31.786Z,4.80
2019-03-16T05:23:39.344Z,9.97
2019-03-16T05:25:46.687Z,6.43
2019-03-16T05:27:54.091Z,5.93
2019-03-16T05:30:01.433Z,4.73
2019-03-16T05:32:08.690Z,3.97
2019-03-16T05:34:16.104Z,5.63
2019-03-16T05:36:23.356Z,7.30
2019-03-16T05:38:30.681Z,8.93
2019-03-16T05:40:37.992Z,6.43
2019-03-16T05:42:45.572Z,8.07
2019-03-16T05:44:53.008Z,5.40
2019-03-16T05:47:00.532Z,6.70
2019-03-16T05:49:08.075Z,5.20
2019-03-16T05:51:15.390Z,7.57
2019-03-16T05:53:22.794Z,16.53
2019-03-16T05:55:30.400Z,17.23
2019-03-16T05:57:37.813Z,8.97
2019-03-16T05:59:45.169Z,4.43
2019-03-16T06:01:52.547Z,9.57
2019-03-16T06:03:59.944Z,6.67
2019-03-16T06:06:07.466Z,6.80
2019-03-16T06:08:14.914Z,6.00
2019-03-16T06:10:22.318Z,10.53
2019-03-16T06:12:29.782Z,4.27
2019-03-16T06:14:37.317Z,25.23
2019-03-16T06:16:44.661Z,5.37
2019-03-16T06:18:52.228Z,17.60
2019-03-16T06:20:59.789Z,15.70
2019-03-16T06:23:07.126Z,9.77
2019-03-16T06:25:14.772Z,8.40
2019-03-16T06:27:22.297Z,9.37
2019-03-16T06:29:29.726Z,9.63
2019-03-16T06:31:37.115Z,6.27
2019-03-16T06:33:44.551Z,5.37
2019-03-16T06:35:52.043Z,12.70
2019-03-16T06:37:59.629Z,9.10
2019-03-16T06:40:07.490Z,8.30
2019-03-16T06:42:14.841Z,8.23
2019-03-16T06:44:22.288Z,6.43
2019-03-16T06:46:29.702Z,8.00
2019-03-16T06:48:37.118Z,6.90
2019-03-16T06:50:44.586Z,5.10
2019-03-16T06:52:52.186Z,7.73
2019-03-16T06:54:59.588Z,8.50
2019-03-16T06:57:07.258Z,11.60
2019-03-16T06:59:14.814Z,33.17
2019-03-16T07:01:43.841Z,5.50
2019-03-16T07:03:51.488Z,7.67
2019-03-16T07:05:58.940Z,9.43
2019-03-16T07:08:06.346Z,11.57
2019-03-16T07:10:13.883Z,10.07
2019-03-16T07:12:21.241Z,9.13
2019-03-16T07:14:29.921Z,9.70
2019-03-16T07:16:38.086Z,10.30
2019-03-16T07:18:58.069Z,11.90
2019-03-16T07:20:55.385Z,7.90
2019-03-16T07:23:03.160Z,7.73
2019-03-16T07:25:10.912Z,14.23
2019-03-16T07:27:25.991Z,9.63
2019-03-16T07:29:28.237Z,5.47
2019-03-16T07:31:35.896Z,8.70
2019-03-16T07:33:43.610Z,11.40
2019-03-16T07:35:51.293Z,6.40
2019-03-16T07:37:58.875Z,10.50
2019-03-16T07:40:07.576Z,5.87
2019-03-16T07:42:14.942Z,8.40
2019-03-16T07:44:22.405Z,6.37
2019-03-16T07:46:30.192Z,5.87
2019-03-16T07:48:37.807Z,8.47
2019-03-16T07:50:45.644Z,9.10
2019-03-16T07:52:53.197Z,5.27
2019-03-16T07:55:00.836Z,5.17
2019-03-16T07:57:08.342Z,7.50
2019-03-16T07:59:17.374Z,7.27
2019-03-16T08:01:24.988Z,11.33
2019-03-16T08:03:38.817Z,5.83
2019-03-16T08:05:51.030Z,7.43
2019-03-16T08:07:58.700Z,10.47
2019-03-16T08:10:06.360Z,8.80
2019-03-16T08:12:13.838Z,7.43
2019-03-16T08:14:22.352Z,8.33
2019-03-16T08:16:30.149Z,7.70
2019-03-16T08:18:38.151Z,7.67
2019-03-16T08:20:45.888Z,10.30
2019-03-16T08:22:55.604Z,8.27
2019-03-16T08:25:07.914Z,9.30
2019-03-16T08:27:16.080Z,7.23
2019-03-16T08:29:23.949Z,6.57
2019-03-16T08:31:31.785Z,9.23
2019-03-16T08:33:39.662Z,6.57
2019-03-16T08:35:47.459Z,8.40
2019-03-16T08:37:55.195Z,6.73
2019-03-16T08:40:03.486Z,6.77
2019-03-16T08:42:12.442Z,8.67
2019-03-16T08:44:20.423Z,10.90
2019-03-16T08:46:28.265Z,6.27
2019-03-16T08:48:35.927Z,14.17
2019-03-16T08:50:43.532Z,8.03
2019-03-16T08:52:53.633Z,14.03
2019-03-16T08:55:01.594Z,11.17
2019-03-16T08:57:08.985Z,8.50
2019-03-16T08:59:17.453Z,10.40
2019-03-16T09:01:27.188Z,9.43
2019-03-16T09:03:43.662Z,8.77
2019-03-16T09:05:43.709Z,13.83
2019-03-16T09:07:51.703Z,15.13
2019-03-16T09:09:59.233Z,13.90
2019-03-16T09:12:06.906Z,12.10
2019-03-16T09:14:14.654Z,24.13
2019-03-16T09:16:23.277Z,8.87
2019-03-16T09:18:34.199Z,10.77
2019-03-16T09:20:53.842Z,12.60
2019-03-16T09:23:01.434Z,43.37
2019-03-16T09:25:09.773Z,9.97
2019-03-16T09:27:17.129Z,9.27
2019-03-16T09:29:24.565Z,6.57
2019-03-16T09:31:32.199Z,7.77
2019-03-16T09:33:39.750Z,5.43
2019-03-16T09:35:47.610Z,5.07
2019-03-16T09:37:55.357Z,8.43
2019-03-16T09:40:03.608Z,7.63
2019-03-16T09:42:15.417Z,7.77
2019-03-16T09:44:24.939Z,11.70
2019-03-16T09:46:36.719Z,6.93
2019-03-16T09:48:45.583Z,10.40
2019-03-16T09:50:53.113Z,7.73
2019-03-16T09:53:00.707Z,10.80
2019-03-16T09:55:08.664Z,7.83
2019-03-16T09:57:16.292Z,7.07
2019-03-16T09:59:24.323Z,12.00
2019-03-16T10:01:31.897Z,8.63
2019-03-16T10:03:39.523Z,36.47
2019-03-16T10:05:47.140Z,7.77
2019-03-16T10:07:54.667Z,5.33
2019-03-16T10:10:02.308Z,22.97
2019-03-16T10:12:09.761Z,6.47
2019-03-16T10:14:17.529Z,6.53
2019-03-16T10:16:25.280Z,9.53
2019-03-16T10:18:33.121Z,15.07
2019-03-16T10:20:40.850Z,13.77
2019-03-16T10:22:48.282Z,9.43
2019-03-16T10:24:56.123Z,14.10
2019-03-16T10:27:03.801Z,11.93
2019-03-16T10:29:11.316Z,7.70
2019-03-16T10:31:23.689Z,10.67
2019-03-16T10:33:35.444Z,36.67
2019-03-16T10:35:42.993Z,22.30
2019-03-16T10:37:50.798Z,15.10
2019-03-16T10:39:58.369Z,14.37
2019-03-16T10:42:10.876Z,12.00
2019-03-16T10:44:23.626Z,12.37
2019-03-16T10:46:31.678Z,15.80
2019-03-16T10:48:39.347Z,11.00
2019-03-16T10:50:47.423Z,27.83
2019-03-16T10:52:55.601Z,10.40
2019-03-16T10:55:10.478Z,19.67
2019-03-16T10:57:18.486Z,14.90
2019-03-16T10:59:27.846Z,12.43
2019-03-16T11:01:46.517Z,29.40
2019-03-16T11:03:57.011Z,114.07
2019-03-16T11:06:06.991Z,26.07
2019-03-16T11:08:21.346Z,106.80
2019-03-16T11:10:31.278Z,30.60
2019-03-16T11:12:39.781Z,14.40
2019-03-16T11:14:56.562Z,22.83
2019-03-16T11:17:04.349Z,8.40
2019-03-16T11:19:14.095Z,21.73
2019-03-16T11:21:23.527Z,7.93
2019-03-16T11:23:31.252Z,9.57
2019-03-16T11:25:44.167Z,10.23
2019-03-16T11:27:51.759Z,11.43
2019-03-16T11:29:59.426Z,6.83
2019-03-16T11:32:06.884Z,10.20
2019-03-16T11:34:14.422Z,8.00
2019-03-16T11:36:21.920Z,10.13
2019-03-16T11:38:29.556Z,12.47
2019-03-16T11:40:37.183Z,8.33
2019-03-16T11:42:44.846Z,9.00
2019-03-16T11:44:52.591Z,8.97
2019-03-16T11:47:00.388Z,9.03
2019-03-16T11:49:07.984Z,12.23
2019-03-16T11:51:15.614Z,6.50
2019-03-16T11:53:29.298Z,7.13
2019-03-16T11:55:37.163Z,7.63
2019-03-16T11:57:45.750Z,7.73
2019-03-16T11:59:53.660Z,9.37
2019-03-16T12:02:05.453Z,15.70
2019-03-16T12:04:10.904Z,8.13
2019-03-16T12:06:18.496Z,7.50
2019-03-16T12:08:29.452Z,6.10
2019-03-16T12:10:37.143Z,8.93
2019-03-16T12:12:45.075Z,8.67
2019-03-16T12:14:52.881Z,13.20
2019-03-16T12:17:06.509Z,19.23
2019-03-16T12:19:14.303Z,18.23
2019-03-16T12:21:26.648Z,25.23
2019-03-16T12:23:42.457Z,12.07
2019-03-16T12:26:10.857Z,11.53
2019-03-16T12:28:25.637Z,13.83
2019-03-16T12:30:33.239Z,19.93
2019-03-16T12:32:52.493Z,18.40
2019-03-16T12:35:28.676Z,7.93
2019-03-16T12:37:38.536Z,14.83
2019-03-16T12:39:48.697Z,21.40
2019-03-16T12:41:56.460Z,21.60
2019-03-16T12:44:04.054Z,21.90
2019-03-16T12:46:12.091Z,15.70
2019-03-16T12:48:20.286Z,42.00
2019-03-16T12:50:28.411Z,34.70
2019-03-16T12:52:36.678Z,61.97
2019-03-16T12:54:44.613Z,32.03
2019-03-16T12:56:52.270Z,19.53
2019-03-16T12:59:10.799Z,15.27
2019-03-16T13:01:15.650Z,15.77
2019-03-16T13:03:30.379Z,21.60
2019-03-16T13:05:38.363Z,27.53
2019-03-16T13:07:49.370Z,82.53
2019-03-16T13:10:00.908Z,17.63
2019-03-16T13:12:14.243Z,10.30
2019-03-16T13:14:22.297Z,29.70
2019-03-16T13:16:53.638Z,45.73
2019-03-16T13:19:02.475Z,7.57
2019-03-16T13:21:20.105Z,17.00
2019-03-16T13:23:42.156Z,14.57
2019-03-16T13:26:04.863Z,14.37
2019-03-16T13:28:15.274Z,15.23
2019-03-16T13:30:23.116Z,19.13
2019-03-16T13:32:57.947Z,31.73
2019-03-16T13:35:10.611Z,20.20
2019-03-16T13:37:23.811Z,43.47
2019-03-16T13:39:34.366Z,85.00
2019-03-16T13:41:41.990Z,30.07
2019-03-16T13:43:55.848Z,20.47
2019-03-16T13:46:07.133Z,16.80
2019-03-16T13:48:16.141Z,13.03
2019-03-16T13:50:25.133Z,16.67
2019-03-16T13:52:36.428Z,20.23
2019-03-16T13:54:44.567Z,19.37
2019-03-16T13:56:58.867Z,28.97
2019-03-16T13:59:07.653Z,16.70
2019-03-16T14:01:16.342Z,23.00
2019-03-16T14:03:24.788Z,22.73
2019-03-16T14:05:33.415Z,25.63
2019-03-16T14:07:42.263Z,55.93
2019-03-16T14:09:50.467Z,47.67
2019-03-16T14:11:58.668Z,25.90
2019-03-16T14:14:08.238Z,19.67
2019-03-16T14:16:16.404Z,25.93
2019-03-16T14:18:25.367Z,37.13
2019-03-16T14:20:53.827Z,20.07
2019-03-16T14:23:04.383Z,26.70
2019-03-16T14:25:12.891Z,15.80
2019-03-16T14:27:24.230Z,46.27
2019-03-16T14:29:32.817Z,29.73
2019-03-16T14:31:41.066Z,22.17
2019-03-16T14:33:48.954Z,42.10
2019-03-16T14:35:56.936Z,74.33
2019-03-16T14:38:04.746Z,23.00
2019-03-16T14:40:13.149Z,21.17
2019-03-16T14:42:20.924Z,38.43
2019-03-16T14:44:29.504Z,22.23
2019-03-16T14:46:37.075Z,39.07
2019-03-16T14:48:46.086Z,31.57
2019-03-16T14:50:54.043Z,23.07
2019-03-16T14:53:02.026Z,22.13
2019-03-16T14:55:10.272Z,22.03
2019-03-16T14:57:18.013Z,27.10
2019-03-16T14:59:25.590Z,30.23
2019-03-16T15:01:33.092Z,28.07
2019-03-16T15:03:40.764Z,30.77
2019-03-16T15:05:52.002Z,57.93
2019-03-16T15:08:00.075Z,26.67
2019-03-16T15:10:08.327Z,29.10
2019-03-16T15:12:16.211Z,35.07
2019-03-16T15:14:24.977Z,27.63
2019-03-16T15:16:32.455Z,20.70
2019-03-16T15:18:40.228Z,29.90
2019-03-16T15:20:48.415Z,41.10
2019-03-16T15:22:56.513Z,36.43
2019-03-16T15:25:04.505Z,32.93
2019-03-16T15:27:15.667Z,48.93
2019-03-16T15:29:22.305Z,30.97
2019-03-16T15:31:30.452Z,17.30
2019-03-16T15:33:38.464Z,13.77
2019-03-16T15:35:46.342Z,23.77
2019-03-16T15:37:54.011Z,17.63
2019-03-16T15:40:01.601Z,20.90
2019-03-16T15:42:09.251Z,26.80
2019-03-16T15:44:16.811Z,35.63
2019-03-16T15:46:24.498Z,32.20
2019-03-16T15:48:32.111Z,31.57
2019-03-16T15:50:39.730Z,32.53
2019-03-16T15:52:47.287Z,40.40
2019-03-16T15:54:55.004Z,59.23
2019-03-16T15:57:02.613Z,53.93
2019-03-16T15:59:10.213Z,47.17
2019-03-16T16:01:17.810Z,39.90
2019-03-16T16:03:25.692Z,39.93
2019-03-16T16:05:33.562Z,34.47
2019-03-16T16:07:41.158Z,30.77
2019-03-16T16:09:50.110Z,37.37
2019-03-16T16:11:59.743Z,35.17
2019-03-16T16:14:07.306Z,36.40
2019-03-16T16:16:14.987Z,37.03
2019-03-16T16:18:22.919Z,43.67
2019-03-16T16:20:31.607Z,27.20
2019-03-16T16:22:39.312Z,27.27
2019-03-16T16:24:48.129Z,28.10
2019-03-16T16:26:55.784Z,19.87
2019-03-16T16:29:03.519Z,26.43
2019-03-16T16:31:16.487Z,20.87
2019-03-16T16:33:22.687Z,19.67
2019-03-16T16:35:30.260Z,21.70
2019-03-16T16:37:38.290Z,18.73
2019-03-16T16:39:46.930Z,18.23
2019-03-16T16:41:54.701Z,20.00
2019-03-16T16:44:03.124Z,20.33
2019-03-16T16:46:11.120Z,25.47
2019-03-16T16:48:18.920Z,37.03
2019-03-16T16:50:26.655Z,48.00
2019-03-16T16:52:35.014Z,34.27
2019-03-16T16:54:42.717Z,21.73
2019-03-16T16:56:50.903Z,19.13
2019-03-16T16:58:59.136Z,21.03
2019-03-16T17:01:06.939Z,25.03
2019-03-16T17:03:14.451Z,20.37
2019-03-16T17:05:21.931Z,19.20
2019-03-16T17:07:29.994Z,22.73
2019-03-16T17:09:37.668Z,24.80
2019-03-16T17:11:45.257Z,27.43
2019-03-16T17:13:53.100Z,21.83
2019-03-16T17:16:00.726Z,17.90
2019-03-16T17:18:08.441Z,21.43
2019-03-16T17:20:16.420Z,22.20
2019-03-16T17:22:24.117Z,15.60
2019-03-16T17:24:32.488Z,21.67
2019-03-16T17:26:40.093Z,22.13
2019-03-16T17:28:48.797Z,21.07
2019-03-16T17:30:58.770Z,22.07
2019-03-16T17:33:06.544Z,19.17
2019-03-16T17:35:14.387Z,28.43
2019-03-16T17:37:22.858Z,25.30
2019-03-16T17:39:30.546Z,30.60
2019-03-16T17:41:38.087Z,39.87
2019-03-16T17:43:45.974Z,35.73
2019-03-16T17:45:53.582Z,39.70
2019-03-16T17:48:01.228Z,53.10
2019-03-16T17:50:09.735Z,47.03
2019-03-16T17:52:17.669Z,40.33
2019-03-16T17:54:25.196Z,54.30
2019-03-16T17:56:32.713Z,50.67
2019-03-16T17:58:40.173Z,77.57
2019-03-16T18:00:48.822Z,42.10
2019-03-16T18:02:56.381Z,42.63
2019-03-16T18:05:04.123Z,46.67
2019-03-16T18:07:12.681Z,45.73
2019-03-16T18:09:20.277Z,57.23
2019-03-16T18:11:27.889Z,59.30
2019-03-16T18:13:35.609Z,41.43
2019-03-16T18:15:43.337Z,34.77
2019-03-16T18:17:50.966Z,41.57
2019-03-16T18:19:58.517Z,47.97
2019-03-16T18:22:06.117Z,54.23
2019-03-16T18:24:13.726Z,43.97
2019-03-16T18:26:21.630Z,53.30
2019-03-16T18:28:29.604Z,76.20
2019-03-16T18:30:37.293Z,58.00
2019-03-16T18:32:45.135Z,60.87
2019-03-16T18:34:52.729Z,52.03
2019-03-16T18:37:00.896Z,76.00
2019-03-16T18:39:09.540Z,51.53
2019-03-16T18:41:17.393Z,47.87
2019-03-16T18:43:25.029Z,48.30
2019-03-16T18:45:32.732Z,35.70
2019-03-16T18:47:40.653Z,40.73
2019-03-16T18:49:48.314Z,45.87
2019-03-16T18:51:58.363Z,58.07
2019-03-16T18:54:06.056Z,51.50
2019-03-16T18:56:13.843Z,78.20
2019-03-16T18:58:21.364Z,85.93
2019-03-16T19:00:29.645Z,85.53
2019-03-16T19:02:37.245Z,86.87
2019-03-16T19:04:45.447Z,135.63
2019-03-16T19:06:53.655Z,101.13
2019-03-16T19:09:01.615Z,127.90
2019-03-16T19:11:09.240Z,118.53
2019-03-16T19:13:16.964Z,119.87
2019-03-16T19:15:24.825Z,124.43
2019-03-16T19:17:32.624Z,124.23
2019-03-16T19:19:40.413Z,135.90
2019-03-16T19:21:50.278Z,121.07
2019-03-16T19:23:57.914Z,92.20
2019-03-16T19:26:05.632Z,104.83
2019-03-16T19:28:13.547Z,172.97
2019-03-16T19:30:21.983Z,116.77
2019-03-16T19:32:33.997Z,94.43
2019-03-16T19:34:39.320Z,57.53
2019-03-16T19:36:46.922Z,64.93
2019-03-16T19:38:54.706Z,34.27
2019-03-16T19:41:02.469Z,24.77
2019-03-16T19:43:10.461Z,26.23
2019-03-16T19:45:18.324Z,24.50
2019-03-16T19:47:26.052Z,29.93
2019-03-16T19:49:34.247Z,34.43
2019-03-16T19:51:41.975Z,32.50
2019-03-16T19:53:49.714Z,33.27
2019-03-16T19:55:57.519Z,41.43
2019-03-16T19:58:05.237Z,39.20
2019-03-16T20:00:15.639Z,45.23
2019-03-16T20:02:23.564Z,39.00
2019-03-16T20:04:36.137Z,32.10
2019-03-16T20:06:41.822Z,29.27
2019-03-16T20:08:49.475Z,38.97
2019-03-16T20:11:05.897Z,33.33
2019-03-16T20:13:06.571Z,29.03
2019-03-16T20:15:15.443Z,30.73
2019-03-16T20:17:23.176Z,29.50
2019-03-16T20:19:30.708Z,33.27
2019-03-16T20:21:38.596Z,34.73
2019-03-16T20:23:47.340Z,36.53
2019-03-16T20:25:55.075Z,37.70
2019-03-16T20:28:03.159Z,32.90
2019-03-16T20:30:11.505Z,37.57
2019-03-16T20:32:20.371Z,33.67
2019-03-16T20:34:28.155Z,38.67
2019-03-16T20:36:36.210Z,39.90
2019-03-16T20:38:44.071Z,35.83
2019-03-16T20:40:51.803Z,45.80
2019-03-16T20:42:59.609Z,52.37
2019-03-16T20:45:07.953Z,48.17
2019-03-16T20:47:16.206Z,47.17
2019-03-16T20:49:24.069Z,49.50
2019-03-16T20:51:31.748Z,44.70
2019-03-16T20:53:39.831Z,46.13
2019-03-16T20:55:47.972Z,41.20
2019-03-16T20:57:56.140Z,34.77
2019-03-16T21:00:04.476Z,51.03
2019-03-16T21:02:12.195Z,43.03
2019-03-16T21:04:19.909Z,45.20
2019-03-16T21:06:27.660Z,43.40
2019-03-16T21:08:35.388Z,43.83
2019-03-16T21:10:43.363Z,43.80
2019-03-16T21:12:51.162Z,49.67
2019-03-16T21:14:59.045Z,40.27
2019-03-16T21:17:06.746Z,39.30
2019-03-16T21:19:14.377Z,40.57
2019-03-16T21:21:22.046Z,42.93
2019-03-16T21:23:29.841Z,36.27
2019-03-16T21:25:37.818Z,36.13
2019-03-16T21:27:45.671Z,50.73
2019-03-16T21:29:53.342Z,42.47
2019-03-16T21:32:01.476Z,54.83
2019-03-16T21:34:09.174Z,44.77
2019-03-16T21:36:17.186Z,53.60
2019-03-16T21:38:25.035Z,54.87
2019-03-16T21:40:32.755Z,57.37
2019-03-16T21:42:40.540Z,51.97
2019-03-16T21:44:48.241Z,45.77
2019-03-16T21:46:57.045Z,38.27
2019-03-16T21:49:04.955Z,40.73
2019-03-16T21:51:12.867Z,44.17
2019-03-16T21:53:20.673Z,44.50
2019-03-16T21:55:28.462Z,42.10
2019-03-16T21:57:36.663Z,38.80
2019-03-16T21:59:44.260Z,42.10
2019-03-16T22:01:52.213Z,37.93
2019-03-16T22:04:01.321Z,41.03
2019-03-16T22:06:09.699Z,39.73
2019-03-16T22:08:18.029Z,39.07
2019-03-16T22:10:26.303Z,43.53
2019-03-16T22:12:34.784Z,53.00
2019-03-16T22:14:42.910Z,40.53
2019-03-16T22:16:50.669Z,43.27
2019-03-16T22:18:58.644Z,46.47
2019-03-16T22:21:06.754Z,51.83
2019-03-16T22:23:14.494Z,50.20
2019-03-16T22:25:22.991Z,47.87
2019-03-16T22:27:30.789Z,54.60
2019-03-16T22:29:39.223Z,54.87
2019-03-16T22:31:47.124Z,51.63
2019-03-16T22:33:55.029Z,58.20
2019-03-16T22:36:03.056Z,45.30
2019-03-16T22:38:10.665Z,44.17
2019-03-16T22:40:18.502Z,44.00
2019-03-16T22:42:26.258Z,45.23
2019-03-16T22:44:34.139Z,40.63
2019-03-16T22:46:42.343Z,41.33
2019-03-16T22:48:50.098Z,40.37
2019-03-16T22:50:57.798Z,54.63
2019-03-16T22:53:05.590Z,41.90
2019-03-16T22:55:15.864Z,42.23
2019-03-16T22:57:23.238Z,44.67
2019-03-16T22:59:30.903Z,43.40
2019-03-16T23:01:38.940Z,37.80
2019-03-16T23:03:46.893Z,37.27
2019-03-16T23:05:55.727Z,36.93
2019-03-16T23:08:03.316Z,38.57
2019-03-16T23:10:24.862Z,35.40
2019-03-16T23:12:32.584Z,33.60
2019-03-16T23:14:40.048Z,36.37
2019-03-16T23:16:47.672Z,29.60
2019-03-16T23:18:55.396Z,27.00
2019-03-16T23:21:03.073Z,24.73
2019-03-16T23:23:10.702Z,28.93
2019-03-16T23:25:18.220Z,24.63
2019-03-16T23:27:25.718Z,30.83
2019-03-16T23:29:33.111Z,29.13
2019-03-16T23:31:40.480Z,22.20
2019-03-16T23:33:48.210Z,31.43
2019-03-16T23:35:55.551Z,27.23
2019-03-16T23:38:02.983Z,19.43
2019-03-16T23:40:10.759Z,31.27
2019-03-16T23:42:18.155Z,23.17
2019-03-16T23:44:25.590Z,21.77
2019-03-16T23:46:32.993Z,21.47
2019-03-16T23:48:40.469Z,19.07
2019-03-16T23:50:47.992Z,18.47
2019-03-16T23:52:55.436Z,15.17
2019-03-16T23:55:02.802Z,25.97
2019-03-16T23:57:10.607Z,23.53
2019-03-16T23:59:18.039Z,20.03
